sensor_id;sensor_type;location;lat;lon;timestamp;P1;durP1;ratioP1;P2;durP2;ratioP2
21560;SDS011;10941;53.590;9.960;2023-06-22T00:00:48;51.47;;;4.80;;
21560;SDS011;10941;53.590;9.960;2023-06-22T00:03:15;51.50;;;5.13;;
21560;SDS011;10941;53.590;9.960;2023-06-22T00:05:41;53.27;;;5.67;;
21560;SDS011;10941;53.590;9.960;2023-06-22T00:08:07;52.10;;;4.60;;
21560;SDS011;10941;53.590;9.960;2023-06-22T00:10:34;54.73;;;5.57;;
21560;SDS011;10941;53.590;9.960;2023-06-22T00:13:00;52.20;;;4.70;;
21560;SDS011;10941;53.590;9.960;2023-06-22T00:15:27;52.27;;;5.17;;
21560;SDS011;10941;53.590;9.960;2023-06-22T00:17:54;53.60;;;5.50;;
21560;SDS011;10941;53.590;9.960;2023-06-22T00:20:20;52.30;;;5.00;;
21560;SDS011;10941;53.590;9.960;2023-06-22T00:22:46;53.00;;;5.40;;
21560;SDS011;10941;53.590;9.960;2023-06-22T00:25:13;51.67;;;5.10;;
21560;SDS011;10941;53.590;9.960;2023-06-22T00:27:39;53.80;;;5.60;;
21560;SDS011;10941;53.590;9.960;2023-06-22T00:30:06;51.17;;;4.40;;
21560;SDS011;10941;53.590;9.960;2023-06-22T00:32:35;52.57;;;5.00;;
21560;SDS011;10941;53.590;9.960;2023-06-22T00:35:01;54.03;;;5.17;;
21560;SDS011;10941;53.590;9.960;2023-06-22T00:37:28;53.17;;;5.70;;
21560;SDS011;10941;53.590;9.960;2023-06-22T00:39:55;55.57;;;4.93;;
21560;SDS011;10941;53.590;9.960;2023-06-22T00:42:22;52.10;;;4.80;;
21560;SDS011;10941;53.590;9.960;2023-06-22T00:44:48;51.50;;;5.63;;
21560;SDS011;10941;53.590;9.960;2023-06-22T00:47:15;52.80;;;5.50;;
21560;SDS011;10941;53.590;9.960;2023-06-22T00:49:41;54.40;;;4.30;;
21560;SDS011;10941;53.590;9.960;2023-06-22T00:52:08;53.43;;;5.27;;
21560;SDS011;10941;53.590;9.960;2023-06-22T00:54:42;54.40;;;6.00;;
21560;SDS011;10941;53.590;9.960;2023-06-22T00:57:12;52.80;;;4.50;;
21560;SDS011;10941;53.590;9.960;2023-06-22T00:59:44;51.80;;;4.33;;
21560;SDS011;10941;53.590;9.960;2023-06-22T01:02:11;51.90;;;4.53;;
21560;SDS011;10941;53.590;9.960;2023-06-22T01:04:37;53.27;;;5.60;;
21560;SDS011;10941;53.590;9.960;2023-06-22T01:07:13;52.30;;;4.77;;
21560;SDS011;10941;53.590;9.960;2023-06-22T01:09:47;52.83;;;5.33;;
21560;SDS011;10941;53.590;9.960;2023-06-22T01:12:15;54.17;;;6.13;;
21560;SDS011;10941;53.590;9.960;2023-06-22T01:15:04;53.77;;;5.93;;
21560;SDS011;10941;53.590;9.960;2023-06-22T01:17:32;51.20;;;5.20;;
21560;SDS011;10941;53.590;9.960;2023-06-22T01:19:58;52.97;;;5.53;;
21560;SDS011;10941;53.590;9.960;2023-06-22T01:22:28;52.83;;;4.90;;
21560;SDS011;10941;53.590;9.960;2023-06-22T01:29:59;52.30;;;5.20;;
21560;SDS011;10941;53.590;9.960;2023-06-22T01:32:31;53.33;;;6.00;;
21560;SDS011;10941;53.590;9.960;2023-06-22T01:34:58;53.37;;;5.27;;
21560;SDS011;10941;53.590;9.960;2023-06-22T01:37:26;53.20;;;5.70;;
21560;SDS011;10941;53.590;9.960;2023-06-22T01:39:54;52.90;;;5.90;;
21560;SDS011;10941;53.590;9.960;2023-06-22T01:42:21;51.50;;;6.00;;
21560;SDS011;10941;53.590;9.960;2023-06-22T01:44:47;56.03;;;5.60;;
21560;SDS011;10941;53.590;9.960;2023-06-22T01:47:14;53.87;;;6.17;;
21560;SDS011;10941;53.590;9.960;2023-06-22T01:49:40;53.80;;;5.60;;
21560;SDS011;10941;53.590;9.960;2023-06-22T01:52:07;53.87;;;6.57;;
21560;SDS011;10941;53.590;9.960;2023-06-22T01:54:36;54.10;;;6.17;;
21560;SDS011;10941;53.590;9.960;2023-06-22T01:57:03;53.97;;;6.13;;
21560;SDS011;10941;53.590;9.960;2023-06-22T01:59:33;54.20;;;6.83;;
21560;SDS011;10941;53.590;9.960;2023-06-22T02:02:07;53.17;;;5.73;;
21560;SDS011;10941;53.590;9.960;2023-06-22T02:04:36;52.70;;;6.87;;
21560;SDS011;10941;53.590;9.960;2023-06-22T02:07:05;52.70;;;5.60;;
21560;SDS011;10941;53.590;9.960;2023-06-22T02:09:32;53.27;;;5.10;;
21560;SDS011;10941;53.590;9.960;2023-06-22T02:12:01;56.03;;;5.87;;
21560;SDS011;10941;53.590;9.960;2023-06-22T02:14:28;52.97;;;5.60;;
21560;SDS011;10941;53.590;9.960;2023-06-22T02:16:54;52.63;;;5.73;;
21560;SDS011;10941;53.590;9.960;2023-06-22T02:19:24;53.00;;;5.93;;
21560;SDS011;10941;53.590;9.960;2023-06-22T02:21:50;55.00;;;6.07;;
21560;SDS011;10941;53.590;9.960;2023-06-22T02:24:17;55.40;;;5.33;;
21560;SDS011;10941;53.590;9.960;2023-06-22T02:26:43;53.10;;;5.90;;
21560;SDS011;10941;53.590;9.960;2023-06-22T02:29:13;53.00;;;5.23;;
21560;SDS011;10941;53.590;9.960;2023-06-22T02:31:40;53.80;;;5.53;;
21560;SDS011;10941;53.590;9.960;2023-06-22T02:34:07;59.33;;;7.00;;
21560;SDS011;10941;53.590;9.960;2023-06-22T02:36:33;53.60;;;5.83;;
21560;SDS011;10941;53.590;9.960;2023-06-22T02:39:00;54.30;;;6.93;;
21560;SDS011;10941;53.590;9.960;2023-06-22T02:41:27;54.30;;;6.23;;
21560;SDS011;10941;53.590;9.960;2023-06-22T02:43:54;54.10;;;5.60;;
21560;SDS011;10941;53.590;9.960;2023-06-22T02:46:21;53.00;;;5.70;;
21560;SDS011;10941;53.590;9.960;2023-06-22T02:48:47;52.77;;;5.57;;
21560;SDS011;10941;53.590;9.960;2023-06-22T02:51:14;55.83;;;5.93;;
21560;SDS011;10941;53.590;9.960;2023-06-22T02:53:40;53.47;;;6.23;;
21560;SDS011;10941;53.590;9.960;2023-06-22T02:56:24;55.87;;;7.67;;
21560;SDS011;10941;53.590;9.960;2023-06-22T02:58:51;55.47;;;5.70;;
21560;SDS011;10941;53.590;9.960;2023-06-22T03:01:17;53.30;;;6.30;;
21560;SDS011;10941;53.590;9.960;2023-06-22T03:03:49;53.93;;;6.03;;
21560;SDS011;10941;53.590;9.960;2023-06-22T03:06:15;53.33;;;5.90;;
21560;SDS011;10941;53.590;9.960;2023-06-22T03:08:42;53.70;;;5.70;;
21560;SDS011;10941;53.590;9.960;2023-06-22T03:11:08;53.27;;;5.90;;
21560;SDS011;10941;53.590;9.960;2023-06-22T03:13:34;54.07;;;5.93;;
21560;SDS011;10941;53.590;9.960;2023-06-22T03:16:00;53.17;;;5.07;;
21560;SDS011;10941;53.590;9.960;2023-06-22T03:18:26;53.13;;;5.77;;
21560;SDS011;10941;53.590;9.960;2023-06-22T03:20:52;54.60;;;6.57;;
21560;SDS011;10941;53.590;9.960;2023-06-22T03:23:18;53.17;;;5.20;;
21560;SDS011;10941;53.590;9.960;2023-06-22T03:25:44;53.07;;;6.07;;
21560;SDS011;10941;53.590;9.960;2023-06-22T03:28:10;54.30;;;6.50;;
21560;SDS011;10941;53.590;9.960;2023-06-22T03:30:36;54.27;;;6.20;;
21560;SDS011;10941;53.590;9.960;2023-06-22T03:33:03;53.60;;;6.40;;
21560;SDS011;10941;53.590;9.960;2023-06-22T03:35:29;54.30;;;6.30;;
21560;SDS011;10941;53.590;9.960;2023-06-22T03:37:55;53.93;;;6.40;;
21560;SDS011;10941;53.590;9.960;2023-06-22T03:40:21;53.33;;;6.13;;
21560;SDS011;10941;53.590;9.960;2023-06-22T03:42:47;55.40;;;6.87;;
21560;SDS011;10941;53.590;9.960;2023-06-22T03:45:13;54.33;;;6.43;;
21560;SDS011;10941;53.590;9.960;2023-06-22T03:47:39;53.20;;;5.83;;
21560;SDS011;10941;53.590;9.960;2023-06-22T03:50:05;53.50;;;5.53;;
21560;SDS011;10941;53.590;9.960;2023-06-22T03:52:32;53.67;;;6.40;;
21560;SDS011;10941;53.590;9.960;2023-06-22T03:54:58;54.20;;;5.83;;
21560;SDS011;10941;53.590;9.960;2023-06-22T03:57:24;53.07;;;5.90;;
21560;SDS011;10941;53.590;9.960;2023-06-22T03:59:50;55.27;;;6.50;;
21560;SDS011;10941;53.590;9.960;2023-06-22T04:02:16;55.80;;;7.10;;
21560;SDS011;10941;53.590;9.960;2023-06-22T04:04:42;54.40;;;6.60;;
21560;SDS011;10941;53.590;9.960;2023-06-22T04:07:08;54.23;;;6.90;;
21560;SDS011;10941;53.590;9.960;2023-06-22T04:09:34;54.53;;;6.57;;
21560;SDS011;10941;53.590;9.960;2023-06-22T04:12:01;56.07;;;6.67;;
21560;SDS011;10941;53.590;9.960;2023-06-22T04:14:27;57.43;;;7.10;;
21560;SDS011;10941;53.590;9.960;2023-06-22T04:16:53;54.13;;;6.57;;
21560;SDS011;10941;53.590;9.960;2023-06-22T04:19:19;56.50;;;7.67;;
21560;SDS011;10941;53.590;9.960;2023-06-22T04:21:45;54.70;;;6.70;;
21560;SDS011;10941;53.590;9.960;2023-06-22T04:24:13;54.50;;;6.80;;
21560;SDS011;10941;53.590;9.960;2023-06-22T04:26:39;57.50;;;8.30;;
21560;SDS011;10941;53.590;9.960;2023-06-22T04:29:07;55.70;;;7.80;;
21560;SDS011;10941;53.590;9.960;2023-06-22T04:31:34;54.13;;;6.40;;
21560;SDS011;10941;53.590;9.960;2023-06-22T04:34:02;54.90;;;6.80;;
21560;SDS011;10941;53.590;9.960;2023-06-22T04:36:33;54.10;;;7.70;;
21560;SDS011;10941;53.590;9.960;2023-06-22T04:39:09;57.83;;;8.23;;
21560;SDS011;10941;53.590;9.960;2023-06-22T04:41:36;55.07;;;7.40;;
21560;SDS011;10941;53.590;9.960;2023-06-22T04:44:09;54.40;;;5.93;;
21560;SDS011;10941;53.590;9.960;2023-06-22T04:46:36;55.20;;;6.73;;
21560;SDS011;10941;53.590;9.960;2023-06-22T04:49:09;55.27;;;6.73;;
21560;SDS011;10941;53.590;9.960;2023-06-22T04:51:40;53.23;;;7.37;;
21560;SDS011;10941;53.590;9.960;2023-06-22T04:54:07;54.60;;;6.60;;
21560;SDS011;10941;53.590;9.960;2023-06-22T04:56:33;56.77;;;7.63;;
21560;SDS011;10941;53.590;9.960;2023-06-22T04:58:59;54.70;;;7.00;;
21560;SDS011;10941;53.590;9.960;2023-06-22T05:01:26;55.27;;;7.37;;
21560;SDS011;10941;53.590;9.960;2023-06-22T05:03:52;53.37;;;6.07;;
21560;SDS011;10941;53.590;9.960;2023-06-22T05:06:22;55.00;;;7.40;;
21560;SDS011;10941;53.590;9.960;2023-06-22T05:08:53;54.33;;;7.40;;
21560;SDS011;10941;53.590;9.960;2023-06-22T05:11:25;54.60;;;7.10;;
21560;SDS011;10941;53.590;9.960;2023-06-22T05:13:51;58.10;;;8.80;;
21560;SDS011;10941;53.590;9.960;2023-06-22T05:16:18;54.43;;;6.73;;
21560;SDS011;10941;53.590;9.960;2023-06-22T05:18:49;55.60;;;7.67;;
21560;SDS011;10941;53.590;9.960;2023-06-22T05:21:15;56.03;;;7.03;;
21560;SDS011;10941;53.590;9.960;2023-06-22T05:23:41;52.97;;;7.00;;
21560;SDS011;10941;53.590;9.960;2023-06-22T05:26:07;54.50;;;6.40;;
21560;SDS011;10941;53.590;9.960;2023-06-22T05:28:35;58.03;;;7.03;;
21560;SDS011;10941;53.590;9.960;2023-06-22T05:31:01;55.87;;;7.63;;
21560;SDS011;10941;53.590;9.960;2023-06-22T05:33:27;54.80;;;6.50;;
21560;SDS011;10941;53.590;9.960;2023-06-22T05:35:53;52.83;;;6.60;;
21560;SDS011;10941;53.590;9.960;2023-06-22T05:38:19;57.00;;;6.70;;
21560;SDS011;10941;53.590;9.960;2023-06-22T05:40:45;53.20;;;5.87;;
21560;SDS011;10941;53.590;9.960;2023-06-22T05:43:11;53.10;;;6.40;;
21560;SDS011;10941;53.590;9.960;2023-06-22T05:45:37;53.10;;;6.73;;
21560;SDS011;10941;53.590;9.960;2023-06-22T05:48:04;54.60;;;6.23;;
21560;SDS011;10941;53.590;9.960;2023-06-22T05:50:30;53.93;;;7.23;;
21560;SDS011;10941;53.590;9.960;2023-06-22T05:52:56;53.83;;;6.00;;
21560;SDS011;10941;53.590;9.960;2023-06-22T05:55:22;53.43;;;7.20;;
21560;SDS011;10941;53.590;9.960;2023-06-22T05:57:48;54.90;;;6.90;;
21560;SDS011;10941;53.590;9.960;2023-06-22T06:00:14;53.10;;;6.40;;
21560;SDS011;10941;53.590;9.960;2023-06-22T06:02:40;55.10;;;6.17;;
21560;SDS011;10941;53.590;9.960;2023-06-22T06:05:11;52.50;;;5.20;;
21560;SDS011;10941;53.590;9.960;2023-06-22T06:07:41;51.97;;;5.30;;
21560;SDS011;10941;53.590;9.960;2023-06-22T06:10:08;53.47;;;5.20;;
21560;SDS011;10941;53.590;9.960;2023-06-22T06:12:34;53.60;;;5.80;;
21560;SDS011;10941;53.590;9.960;2023-06-22T06:15:02;54.67;;;6.27;;
21560;SDS011;10941;53.590;9.960;2023-06-22T06:17:29;53.47;;;6.47;;
21560;SDS011;10941;53.590;9.960;2023-06-22T06:19:55;52.53;;;6.63;;
21560;SDS011;10941;53.590;9.960;2023-06-22T06:22:22;54.20;;;5.87;;
21560;SDS011;10941;53.590;9.960;2023-06-22T06:24:48;51.90;;;5.50;;
21560;SDS011;10941;53.590;9.960;2023-06-22T06:27:15;52.90;;;5.20;;
21560;SDS011;10941;53.590;9.960;2023-06-22T06:29:43;53.57;;;7.73;;
21560;SDS011;10941;53.590;9.960;2023-06-22T06:32:13;52.40;;;5.20;;
21560;SDS011;10941;53.590;9.960;2023-06-22T06:34:39;52.20;;;4.87;;
21560;SDS011;10941;53.590;9.960;2023-06-22T06:37:05;52.10;;;4.90;;
21560;SDS011;10941;53.590;9.960;2023-06-22T06:39:32;51.97;;;5.50;;
21560;SDS011;10941;53.590;9.960;2023-06-22T06:41:58;51.73;;;4.70;;
21560;SDS011;10941;53.590;9.960;2023-06-22T06:44:24;52.53;;;4.30;;
21560;SDS011;10941;53.590;9.960;2023-06-22T06:46:50;52.03;;;5.27;;
21560;SDS011;10941;53.590;9.960;2023-06-22T06:49:16;52.87;;;5.40;;
21560;SDS011;10941;53.590;9.960;2023-06-22T06:51:42;53.03;;;6.43;;
21560;SDS011;10941;53.590;9.960;2023-06-22T06:54:08;51.63;;;5.87;;
21560;SDS011;10941;53.590;9.960;2023-06-22T06:56:34;51.87;;;5.77;;
21560;SDS011;10941;53.590;9.960;2023-06-22T06:59:01;51.40;;;5.70;;
21560;SDS011;10941;53.590;9.960;2023-06-22T07:01:27;51.47;;;5.07;;
21560;SDS011;10941;53.590;9.960;2023-06-22T07:03:58;50.60;;;4.57;;
21560;SDS011;10941;53.590;9.960;2023-06-22T07:06:24;52.50;;;5.90;;
21560;SDS011;10941;53.590;9.960;2023-06-22T07:08:54;51.40;;;5.60;;
21560;SDS011;10941;53.590;9.960;2023-06-22T07:11:20;51.50;;;5.03;;
21560;SDS011;10941;53.590;9.960;2023-06-22T07:13:47;51.30;;;4.60;;
21560;SDS011;10941;53.590;9.960;2023-06-22T07:16:13;51.37;;;4.93;;
21560;SDS011;10941;53.590;9.960;2023-06-22T07:18:39;52.97;;;5.90;;
21560;SDS011;10941;53.590;9.960;2023-06-22T07:21:06;53.57;;;5.27;;
21560;SDS011;10941;53.590;9.960;2023-06-22T07:23:32;51.77;;;5.00;;
21560;SDS011;10941;53.590;9.960;2023-06-22T07:25:58;53.33;;;6.73;;
21560;SDS011;10941;53.590;9.960;2023-06-22T07:28:27;50.77;;;4.70;;
21560;SDS011;10941;53.590;9.960;2023-06-22T07:30:56;50.80;;;5.20;;
21560;SDS011;10941;53.590;9.960;2023-06-22T07:33:22;56.27;;;6.20;;
21560;SDS011;10941;53.590;9.960;2023-06-22T07:35:48;53.10;;;5.07;;
21560;SDS011;10941;53.590;9.960;2023-06-22T07:38:17;50.57;;;4.87;;
21560;SDS011;10941;53.590;9.960;2023-06-22T07:40:43;50.77;;;4.50;;
21560;SDS011;10941;53.590;9.960;2023-06-22T07:43:09;51.37;;;5.00;;
21560;SDS011;10941;53.590;9.960;2023-06-22T07:45:37;53.13;;;5.37;;
21560;SDS011;10941;53.590;9.960;2023-06-22T07:48:05;51.63;;;5.60;;
21560;SDS011;10941;53.590;9.960;2023-06-22T07:50:31;50.23;;;4.70;;
21560;SDS011;10941;53.590;9.960;2023-06-22T07:52:57;54.23;;;4.50;;
21560;SDS011;10941;53.590;9.960;2023-06-22T07:55:23;50.53;;;4.90;;
21560;SDS011;10941;53.590;9.960;2023-06-22T07:57:49;51.07;;;4.80;;
21560;SDS011;10941;53.590;9.960;2023-06-22T08:00:17;52.17;;;5.73;;
21560;SDS011;10941;53.590;9.960;2023-06-22T08:02:44;50.87;;;4.77;;
21560;SDS011;10941;53.590;9.960;2023-06-22T08:05:10;49.70;;;4.70;;
21560;SDS011;10941;53.590;9.960;2023-06-22T08:07:36;52.90;;;4.13;;
21560;SDS011;10941;53.590;9.960;2023-06-22T08:10:03;51.00;;;4.97;;
21560;SDS011;10941;53.590;9.960;2023-06-22T08:12:29;54.40;;;4.60;;
21560;SDS011;10941;53.590;9.960;2023-06-22T08:14:56;51.60;;;5.10;;
21560;SDS011;10941;53.590;9.960;2023-06-22T08:17:25;63.37;;;5.93;;
21560;SDS011;10941;53.590;9.960;2023-06-22T08:19:52;49.67;;;4.50;;
21560;SDS011;10941;53.590;9.960;2023-06-22T08:22:18;50.93;;;4.70;;
21560;SDS011;10941;53.590;9.960;2023-06-22T08:24:44;49.80;;;4.67;;
21560;SDS011;10941;53.590;9.960;2023-06-22T08:27:10;52.57;;;4.63;;
21560;SDS011;10941;53.590;9.960;2023-06-22T08:29:41;50.37;;;4.63;;
21560;SDS011;10941;53.590;9.960;2023-06-22T08:32:08;50.50;;;4.93;;
21560;SDS011;10941;53.590;9.960;2023-06-22T08:34:36;49.70;;;4.40;;
21560;SDS011;10941;53.590;9.960;2023-06-22T08:37:02;49.07;;;3.93;;
21560;SDS011;10941;53.590;9.960;2023-06-22T08:39:31;51.43;;;6.00;;
21560;SDS011;10941;53.590;9.960;2023-06-22T08:41:58;51.27;;;4.60;;
21560;SDS011;10941;53.590;9.960;2023-06-22T08:44:24;49.70;;;5.20;;
21560;SDS011;10941;53.590;9.960;2023-06-22T08:46:50;50.00;;;4.73;;
21560;SDS011;10941;53.590;9.960;2023-06-22T08:49:16;49.60;;;5.50;;
21560;SDS011;10941;53.590;9.960;2023-06-22T08:51:42;49.30;;;4.27;;
21560;SDS011;10941;53.590;9.960;2023-06-22T08:54:10;50.30;;;4.53;;
21560;SDS011;10941;53.590;9.960;2023-06-22T08:56:36;50.30;;;4.20;;
21560;SDS011;10941;53.590;9.960;2023-06-22T08:59:03;49.83;;;3.87;;
21560;SDS011;10941;53.590;9.960;2023-06-22T09:01:29;49.10;;;3.37;;
21560;SDS011;10941;53.590;9.960;2023-06-22T09:03:55;48.50;;;3.87;;
21560;SDS011;10941;53.590;9.960;2023-06-22T09:06:23;48.57;;;4.20;;
21560;SDS011;10941;53.590;9.960;2023-06-22T09:08:49;48.93;;;4.07;;
21560;SDS011;10941;53.590;9.960;2023-06-22T09:11:15;51.57;;;4.30;;
21560;SDS011;10941;53.590;9.960;2023-06-22T09:13:42;48.90;;;3.90;;
21560;SDS011;10941;53.590;9.960;2023-06-22T09:16:08;49.47;;;4.60;;
21560;SDS011;10941;53.590;9.960;2023-06-22T09:18:34;51.57;;;5.53;;
21560;SDS011;10941;53.590;9.960;2023-06-22T09:21:01;50.30;;;4.20;;
21560;SDS011;10941;53.590;9.960;2023-06-22T09:23:27;49.43;;;5.83;;
21560;SDS011;10941;53.590;9.960;2023-06-22T09:25:54;47.70;;;3.57;;
21560;SDS011;10941;53.590;9.960;2023-06-22T09:28:20;48.30;;;4.23;;
21560;SDS011;10941;53.590;9.960;2023-06-22T09:30:46;48.37;;;4.60;;
21560;SDS011;10941;53.590;9.960;2023-06-22T09:33:12;48.17;;;4.33;;
21560;SDS011;10941;53.590;9.960;2023-06-22T09:35:39;50.27;;;5.80;;
21560;SDS011;10941;53.590;9.960;2023-06-22T09:38:05;48.30;;;4.70;;
21560;SDS011;10941;53.590;9.960;2023-06-22T09:40:31;48.63;;;4.83;;
21560;SDS011;10941;53.590;9.960;2023-06-22T09:43:00;47.60;;;4.90;;
21560;SDS011;10941;53.590;9.960;2023-06-22T09:45:26;53.60;;;7.10;;
21560;SDS011;10941;53.590;9.960;2023-06-22T09:47:52;47.67;;;4.90;;
21560;SDS011;10941;53.590;9.960;2023-06-22T09:50:18;46.47;;;4.60;;
21560;SDS011;10941;53.590;9.960;2023-06-22T09:52:45;56.03;;;4.90;;
21560;SDS011;10941;53.590;9.960;2023-06-22T09:55:15;48.27;;;3.90;;
21560;SDS011;10941;53.590;9.960;2023-06-22T09:57:41;48.43;;;4.87;;
21560;SDS011;10941;53.590;9.960;2023-06-22T10:00:08;47.50;;;3.83;;
21560;SDS011;10941;53.590;9.960;2023-06-22T10:02:34;49.40;;;3.93;;
21560;SDS011;10941;53.590;9.960;2023-06-22T10:05:01;48.50;;;4.10;;
21560;SDS011;10941;53.590;9.960;2023-06-22T10:07:27;47.90;;;3.50;;
21560;SDS011;10941;53.590;9.960;2023-06-22T10:09:53;48.60;;;4.00;;
21560;SDS011;10941;53.590;9.960;2023-06-22T10:12:19;49.70;;;4.90;;
21560;SDS011;10941;53.590;9.960;2023-06-22T10:14:45;50.10;;;5.27;;
21560;SDS011;10941;53.590;9.960;2023-06-22T10:17:11;49.53;;;4.93;;
21560;SDS011;10941;53.590;9.960;2023-06-22T10:19:37;49.70;;;4.27;;
21560;SDS011;10941;53.590;9.960;2023-06-22T10:22:04;48.73;;;4.60;;
21560;SDS011;10941;53.590;9.960;2023-06-22T10:24:30;46.57;;;3.47;;
21560;SDS011;10941;53.590;9.960;2023-06-22T10:26:57;51.10;;;3.70;;
21560;SDS011;10941;53.590;9.960;2023-06-22T10:29:23;48.47;;;3.97;;
21560;SDS011;10941;53.590;9.960;2023-06-22T10:31:49;47.07;;;4.60;;
21560;SDS011;10941;53.590;9.960;2023-06-22T10:34:15;48.07;;;3.90;;
21560;SDS011;10941;53.590;9.960;2023-06-22T10:36:41;49.50;;;4.07;;
21560;SDS011;10941;53.590;9.960;2023-06-22T10:39:08;46.93;;;4.00;;
21560;SDS011;10941;53.590;9.960;2023-06-22T10:41:35;47.57;;;3.90;;
21560;SDS011;10941;53.590;9.960;2023-06-22T10:44:01;48.33;;;4.07;;
21560;SDS011;10941;53.590;9.960;2023-06-22T10:46:27;48.30;;;3.77;;
21560;SDS011;10941;53.590;9.960;2023-06-22T10:48:53;48.57;;;5.30;;
21560;SDS011;10941;53.590;9.960;2023-06-22T10:51:22;48.87;;;4.40;;
21560;SDS011;10941;53.590;9.960;2023-06-22T10:53:48;54.50;;;7.33;;
21560;SDS011;10941;53.590;9.960;2023-06-22T10:56:14;49.53;;;4.67;;
21560;SDS011;10941;53.590;9.960;2023-06-22T10:58:40;48.70;;;4.57;;
21560;SDS011;10941;53.590;9.960;2023-06-22T11:01:06;50.37;;;4.80;;
21560;SDS011;10941;53.590;9.960;2023-06-22T11:03:32;48.50;;;4.20;;
21560;SDS011;10941;53.590;9.960;2023-06-22T11:05:58;48.40;;;4.23;;
21560;SDS011;10941;53.590;9.960;2023-06-22T11:08:24;49.43;;;4.80;;
21560;SDS011;10941;53.590;9.960;2023-06-22T11:10:51;49.20;;;5.33;;
21560;SDS011;10941;53.590;9.960;2023-06-22T11:13:17;49.27;;;4.50;;
21560;SDS011;10941;53.590;9.960;2023-06-22T11:15:43;50.70;;;4.60;;
21560;SDS011;10941;53.590;9.960;2023-06-22T11:18:09;48.27;;;4.93;;
21560;SDS011;10941;53.590;9.960;2023-06-22T11:20:35;50.37;;;3.90;;
21560;SDS011;10941;53.590;9.960;2023-06-22T11:23:06;52.67;;;4.80;;
21560;SDS011;10941;53.590;9.960;2023-06-22T11:25:33;49.80;;;4.80;;
21560;SDS011;10941;53.590;9.960;2023-06-22T11:28:03;51.83;;;5.90;;
21560;SDS011;10941;53.590;9.960;2023-06-22T11:30:30;52.90;;;5.30;;
21560;SDS011;10941;53.590;9.960;2023-06-22T11:32:57;50.57;;;5.50;;
21560;SDS011;10941;53.590;9.960;2023-06-22T11:35:23;50.57;;;4.30;;
21560;SDS011;10941;53.590;9.960;2023-06-22T11:37:49;50.47;;;4.50;;
21560;SDS011;10941;53.590;9.960;2023-06-22T11:40:15;50.20;;;4.47;;
21560;SDS011;10941;53.590;9.960;2023-06-22T11:42:43;50.20;;;4.90;;
21560;SDS011;10941;53.590;9.960;2023-06-22T11:45:09;51.47;;;5.90;;
21560;SDS011;10941;53.590;9.960;2023-06-22T11:47:35;50.23;;;6.03;;
21560;SDS011;10941;53.590;9.960;2023-06-22T11:50:02;50.00;;;6.50;;
21560;SDS011;10941;53.590;9.960;2023-06-22T11:52:28;54.80;;;11.23;;
21560;SDS011;10941;53.590;9.960;2023-06-22T11:54:54;50.90;;;7.40;;
21560;SDS011;10941;53.590;9.960;2023-06-22T11:57:20;50.50;;;9.23;;
21560;SDS011;10941;53.590;9.960;2023-06-22T11:59:46;55.07;;;14.83;;
21560;SDS011;10941;53.590;9.960;2023-06-22T12:02:12;54.43;;;7.67;;
21560;SDS011;10941;53.590;9.960;2023-06-22T12:04:38;50.20;;;5.97;;
21560;SDS011;10941;53.590;9.960;2023-06-22T12:07:04;53.13;;;7.93;;
21560;SDS011;10941;53.590;9.960;2023-06-22T12:09:31;52.73;;;7.23;;
21560;SDS011;10941;53.590;9.960;2023-06-22T12:11:57;50.80;;;6.33;;
21560;SDS011;10941;53.590;9.960;2023-06-22T12:14:23;50.70;;;6.57;;
21560;SDS011;10941;53.590;9.960;2023-06-22T12:16:49;51.03;;;7.10;;
21560;SDS011;10941;53.590;9.960;2023-06-22T12:19:15;51.50;;;7.50;;
21560;SDS011;10941;53.590;9.960;2023-06-22T12:21:41;51.53;;;9.53;;
21560;SDS011;10941;53.590;9.960;2023-06-22T12:24:10;51.67;;;7.93;;
21560;SDS011;10941;53.590;9.960;2023-06-22T12:26:36;51.07;;;7.63;;
21560;SDS011;10941;53.590;9.960;2023-06-22T12:29:02;51.13;;;7.07;;
21560;SDS011;10941;53.590;9.960;2023-06-22T12:31:28;51.60;;;8.63;;
21560;SDS011;10941;53.590;9.960;2023-06-22T12:33:54;49.97;;;7.43;;
21560;SDS011;10941;53.590;9.960;2023-06-22T12:36:20;51.47;;;7.03;;
21560;SDS011;10941;53.590;9.960;2023-06-22T12:38:47;50.97;;;7.07;;
21560;SDS011;10941;53.590;9.960;2023-06-22T12:41:13;51.37;;;6.70;;
21560;SDS011;10941;53.590;9.960;2023-06-22T12:43:40;51.57;;;8.80;;
21560;SDS011;10941;53.590;9.960;2023-06-22T12:46:06;50.57;;;5.90;;
21560;SDS011;10941;53.590;9.960;2023-06-22T12:48:32;50.47;;;6.70;;
21560;SDS011;10941;53.590;9.960;2023-06-22T12:50:58;51.17;;;6.70;;
21560;SDS011;10941;53.590;9.960;2023-06-22T12:53:24;51.07;;;8.17;;
21560;SDS011;10941;53.590;9.960;2023-06-22T12:55:52;51.67;;;10.27;;
21560;SDS011;10941;53.590;9.960;2023-06-22T12:58:18;52.40;;;11.80;;
21560;SDS011;10941;53.590;9.960;2023-06-22T13:00:44;53.70;;;9.10;;
21560;SDS011;10941;53.590;9.960;2023-06-22T13:03:11;50.90;;;6.00;;
21560;SDS011;10941;53.590;9.960;2023-06-22T13:05:37;50.77;;;5.70;;
21560;SDS011;10941;53.590;9.960;2023-06-22T13:08:03;51.00;;;5.60;;
21560;SDS011;10941;53.590;9.960;2023-06-22T13:10:29;50.23;;;5.93;;
21560;SDS011;10941;53.590;9.960;2023-06-22T13:12:55;51.60;;;6.37;;
21560;SDS011;10941;53.590;9.960;2023-06-22T13:15:26;51.87;;;5.93;;
21560;SDS011;10941;53.590;9.960;2023-06-22T13:17:53;53.33;;;6.37;;
21560;SDS011;10941;53.590;9.960;2023-06-22T13:20:19;52.50;;;7.10;;
21560;SDS011;10941;53.590;9.960;2023-06-22T13:22:45;50.30;;;6.40;;
21560;SDS011;10941;53.590;9.960;2023-06-22T13:25:11;51.27;;;7.20;;
21560;SDS011;10941;53.590;9.960;2023-06-22T13:27:39;50.83;;;5.60;;
21560;SDS011;10941;53.590;9.960;2023-06-22T13:30:05;52.60;;;6.93;;
21560;SDS011;10941;53.590;9.960;2023-06-22T13:32:31;52.67;;;7.83;;
21560;SDS011;10941;53.590;9.960;2023-06-22T13:34:57;50.47;;;6.43;;
21560;SDS011;10941;53.590;9.960;2023-06-22T13:37:23;51.03;;;6.80;;
21560;SDS011;10941;53.590;9.960;2023-06-22T13:39:49;49.77;;;5.20;;
21560;SDS011;10941;53.590;9.960;2023-06-22T13:42:15;51.23;;;6.00;;
21560;SDS011;10941;53.590;9.960;2023-06-22T13:44:42;50.57;;;5.90;;
21560;SDS011;10941;53.590;9.960;2023-06-22T13:47:08;51.10;;;6.43;;
21560;SDS011;10941;53.590;9.960;2023-06-22T13:49:34;52.43;;;11.47;;
21560;SDS011;10941;53.590;9.960;2023-06-22T13:52:00;52.27;;;6.37;;
21560;SDS011;10941;53.590;9.960;2023-06-22T13:54:28;51.13;;;6.07;;
21560;SDS011;10941;53.590;9.960;2023-06-22T13:56:54;51.97;;;6.93;;
21560;SDS011;10941;53.590;9.960;2023-06-22T13:59:20;50.00;;;6.00;;
21560;SDS011;10941;53.590;9.960;2023-06-22T14:01:46;50.73;;;6.13;;
21560;SDS011;10941;53.590;9.960;2023-06-22T14:04:13;51.87;;;9.63;;
21560;SDS011;10941;53.590;9.960;2023-06-22T14:06:39;51.20;;;7.40;;
21560;SDS011;10941;53.590;9.960;2023-06-22T14:09:05;50.80;;;6.07;;
21560;SDS011;10941;53.590;9.960;2023-06-22T14:11:32;52.30;;;5.97;;
21560;SDS011;10941;53.590;9.960;2023-06-22T14:13:58;51.10;;;6.37;;
21560;SDS011;10941;53.590;9.960;2023-06-22T14:16:24;51.13;;;7.23;;
21560;SDS011;10941;53.590;9.960;2023-06-22T14:18:50;52.63;;;11.40;;
21560;SDS011;10941;53.590;9.960;2023-06-22T14:21:16;55.03;;;20.77;;
21560;SDS011;10941;53.590;9.960;2023-06-22T14:23:44;52.47;;;10.07;;
21560;SDS011;10941;53.590;9.960;2023-06-22T14:26:14;55.00;;;19.77;;
21560;SDS011;10941;53.590;9.960;2023-06-22T14:28:42;55.83;;;24.33;;
21560;SDS011;10941;53.590;9.960;2023-06-22T14:31:12;58.03;;;9.53;;
21560;SDS011;10941;53.590;9.960;2023-06-22T14:33:38;52.83;;;6.20;;
21560;SDS011;10941;53.590;9.960;2023-06-22T14:36:05;50.20;;;5.57;;